Time;durP1;ratioP1;P1;durP2;ratioP2;P2;SDS_P1;SDS_P2;PMS_P1;PMS_P2;Temp;Humidity;BMP_temperature;BMP_pressure;BME280_temperature;BME280_humidity;BME280_pressure;Samples;Min_cycle;Max_cycle;Signal;HPM_P1;HPM_P2
2021/03/27 00:00:54;;;;;;;157.73;52.73;;;4.10;99.90;;;;;;4406651;28;658834;-86
2021/03/27 00:03:50;;;;;;;128.80;46.50;;;4.00;99.90;;;;;;4404241;28;658211;-87
2021/03/27 00:06:43;;;;;;;122.87;43.93;;;3.80;99.90;;;;;;4404208;28;658538;-85
2021/03/27 00:09:35;;;;;;;248.73;63.10;;;3.80;99.90;;;;;;4401643;28;659003;-86
2021/03/27 00:12:27;;;;;;;290.40;80.13;;;3.80;99.90;;;;;;4412986;28;658569;-86
2021/03/27 00:15:20;;;;;;;194.53;62.60;;;3.70;99.90;;;;;;4416182;28;658819;-86
2021/03/27 00:18:11;;;;;;;245.27;72.73;;;3.50;99.90;;;;;;4407768;28;658772;-84
2021/03/27 00:21:01;;;;;;;331.53;83.10;;;3.40;99.90;;;;;;4412502;28;658760;-85
2021/03/27 00:23:52;;;;;;;190.80;60.27;;;3.40;99.90;;;;;;4402176;28;658848;-86
2021/03/27 00:26:41;;;;;;;276.07;69.30;;;3.30;99.90;;;;;;4400239;28;659322;-87
2021/03/27 00:29:30;;;;;;;190.50;58.30;;;3.20;99.90;;;;;;4393042;28;658869;-86
2021/03/27 00:32:19;;;;;;;186.13;56.13;;;3.20;99.90;;;;;;4411411;28;659092;-85
2021/03/27 00:35:09;;;;;;;189.38;55.40;;;3.10;99.90;;;;;;4426627;28;658332;-85
2021/03/27 00:37:58;;;;;;;201.17;58.93;;;3.10;99.90;;;;;;4412437;28;658721;-86
2021/03/27 00:40:47;;;;;;;201.33;56.33;;;3.10;99.90;;;;;;4393706;28;659346;-86
2021/03/27 00:43:36;;;;;;;161.93;51.77;;;3.10;99.90;;;;;;4413552;28;658986;-86
2021/03/27 00:46:22;;;;;;;152.53;48.50;;;3.00;99.90;;;;;;4382989;28;658695;-86
2021/03/27 00:49:13;;;;;;;129.57;43.10;;;3.00;99.90;;;;;;4427333;28;659294;-86
2021/03/27 00:52:02;;;;;;;140.27;44.70;;;2.90;99.90;;;;;;4408885;28;659616;-85
2021/03/27 00:54:51;;;;;;;114.70;39.93;;;2.80;99.90;;;;;;4395713;28;659645;-86
2021/03/27 00:57:41;;;;;;;113.70;39.93;;;2.80;99.90;;;;;;4401814;28;658837;-86
2021/03/27 01:00:32;;;;;;;121.30;41.83;;;2.70;99.90;;;;;;4407600;28;658636;-86
2021/03/27 01:03:22;;;;;;;128.90;43.40;;;2.70;99.90;;;;;;4410120;28;658985;-86
2021/03/27 01:06:11;;;;;;;199.70;51.50;;;2.70;99.90;;;;;;4401481;28;658571;-86
2021/03/27 01:08:58;;;;;;;102.83;35.83;;;2.70;99.90;;;;;;4393661;28;659032;-86
2021/03/27 01:11:55;;;;;;;114.87;38.63;;;2.90;99.90;;;;;;4409903;28;658695;-86
2021/03/27 01:14:44;;;;;;;88.53;33.00;;;3.00;99.90;;;;;;4399522;28;659191;-86
2021/03/27 01:17:35;;;;;;;91.53;34.80;;;2.90;99.90;;;;;;4434179;28;657810;-86
2021/03/27 01:20:25;;;;;;;83.30;33.33;;;2.90;99.90;;;;;;4399716;28;657844;-85
2021/03/27 01:23:12;;;;;;;101.27;35.87;;;2.80;99.90;;;;;;4449392;28;657431;-86
2021/03/27 01:26:00;;;;;;;101.77;36.57;;;2.70;99.90;;;;;;4401043;28;659376;-86
2021/03/27 01:28:57;;;;;;;93.18;36.97;;;2.70;99.90;;;;;;4417633;28;658816;-85
2021/03/27 01:31:46;;;;;;;108.97;38.10;;;2.70;99.90;;;;;;4403668;28;657576;-86
2021/03/27 01:34:36;;;;;;;98.60;37.23;;;2.70;99.90;;;;;;4393303;28;658718;-85
2021/03/27 01:37:24;;;;;;;102.87;37.57;;;2.60;99.90;;;;;;4410236;28;657715;-85
2021/03/27 01:40:28;;;;;;;101.22;39.33;;;2.60;99.90;;;;;;4432759;28;658775;-86
2021/03/27 01:43:22;;;;;;;100.07;38.47;;;2.50;99.90;;;;;;4398598;28;659161;-86
2021/03/27 01:46:39;;;;;;;106.03;38.70;;;2.50;99.90;;;;;;4399782;28;658638;-86
2021/03/27 01:49:36;;;;;;;111.10;41.03;;;2.50;99.90;;;;;;4425815;28;658973;-86
2021/03/27 01:52:40;;;;;;;95.10;35.17;;;2.60;99.90;;;;;;4407185;28;658711;-85
2021/03/27 01:55:52;;;;;;;93.33;35.43;;;2.70;99.90;;;;;;4428935;28;657698;-86
2021/03/27 01:58:41;;;;;;;75.97;32.13;;;2.70;99.90;;;;;;4416322;28;657627;-86
2021/03/27 02:01:33;;;;;;;78.47;31.70;;;2.80;99.90;;;;;;4398804;28;657335;-85
2021/03/27 02:04:21;;;;;;;81.00;30.77;;;2.80;99.90;;;;;;4391073;28;657766;-86
2021/03/27 02:07:12;;;;;;;87.17;34.60;;;2.90;99.90;;;;;;4403059;28;657567;-86
2021/03/27 02:10:01;;;;;;;78.63;33.80;;;3.00;99.90;;;;;;4403381;28;657577;-86
2021/03/27 02:12:57;;;;;;;91.73;36.43;;;3.00;99.90;;;;;;4412130;28;657824;-86
2021/03/27 02:15:53;;;;;;;81.53;35.47;;;3.10;99.90;;;;;;4406186;28;657647;-86
2021/03/27 02:18:43;;;;;;;79.07;34.23;;;3.00;99.90;;;;;;4416460;28;657765;-87
2021/03/27 02:21:50;;;;;;;80.63;33.13;;;3.10;99.90;;;;;;4406932;28;658344;-86
2021/03/27 02:24:46;;;;;;;83.83;33.80;;;3.10;99.90;;;;;;4414446;28;657777;-85
2021/03/27 02:27:35;;;;;;;78.93;32.33;;;3.10;99.90;;;;;;4416166;28;658167;-86
2021/03/27 02:30:24;;;;;;;82.13;35.10;;;3.30;99.90;;;;;;4401031;28;657526;-84
2021/03/27 02:33:22;;;;;;;86.37;36.03;;;3.30;99.90;;;;;;4413163;28;658619;-86
2021/03/27 02:36:21;;;;;;;81.97;33.73;;;3.50;99.90;;;;;;4405513;28;657949;-86
2021/03/27 02:39:18;;;;;;;79.40;32.33;;;3.40;99.90;;;;;;4397385;28;658493;-87
2021/03/27 02:42:08;;;;;;;74.83;33.00;;;3.40;99.90;;;;;;4417423;28;657965;-87
2021/03/27 02:44:58;;;;;;;71.10;30.40;;;3.50;99.90;;;;;;4393288;28;658130;-87
2021/03/27 02:47:52;;;;;;;79.30;32.90;;;3.50;99.90;;;;;;4393894;28;658396;-87
2021/03/27 02:50:51;;;;;;;75.77;29.83;;;3.50;99.90;;;;;;4406963;28;657502;-88
2021/03/27 02:53:42;;;;;;;78.03;32.03;;;3.40;99.90;;;;;;4393108;28;657758;-87
2021/03/27 02:56:30;;;;;;;84.17;34.00;;;3.50;99.90;;;;;;4409524;28;658501;-87
2021/03/27 02:59:23;;;;;;;89.50;34.85;;;3.50;99.90;;;;;;4409074;28;657536;-86
2021/03/27 03:02:15;;;;;;;72.13;31.47;;;3.60;99.90;;;;;;4397506;28;658170;-88
2021/03/27 03:05:08;;;;;;;80.67;30.10;;;3.70;99.90;;;;;;4422290;28;657566;-86
2021/03/27 03:08:07;;;;;;;67.93;29.57;;;3.80;99.90;;;;;;4406797;28;658347;-87
2021/03/27 03:10:58;;;;;;;66.00;28.75;;;3.90;99.90;;;;;;4400296;28;657574;-88
2021/03/27 03:13:48;;;;;;;67.27;28.93;;;3.90;99.90;;;;;;4426422;28;657477;-88
2021/03/27 03:16:38;;;;;;;130.93;39.53;;;3.80;99.90;;;;;;4403702;28;658827;-88
2021/03/27 03:19:29;;;;;;;89.73;33.10;;;3.90;99.90;;;;;;4395953;28;658731;-87
2021/03/27 03:22:20;;;;;;;71.10;30.13;;;3.90;99.90;;;;;;4394777;28;658183;-87
2021/03/27 03:25:10;;;;;;;71.47;28.80;;;4.00;99.90;;;;;;4432401;28;657514;-87
2021/03/27 03:28:19;;;;;;;69.10;28.90;;;4.00;99.90;;;;;;4436239;28;657968;-88
2021/03/27 03:31:13;;;;;;;57.53;26.97;;;4.10;99.90;;;;;;4399525;28;657732;-87
2021/03/27 03:34:22;;;;;;;64.60;27.63;;;4.20;99.90;;;;;;4398647;28;657853;-86
2021/03/27 03:37:13;;;;;;;62.40;26.57;;;4.30;99.90;;;;;;4392113;28;658329;-86
2021/03/27 03:40:15;;;;;;;61.83;27.07;;;4.30;99.90;;;;;;4416039;28;658745;-88
2021/03/27 03:43:15;;;;;;;62.80;25.90;;;4.20;99.90;;;;;;4435574;28;657361;-85
2021/03/27 03:46:14;;;;;;;56.47;24.90;;;4.30;99.90;;;;;;4408377;28;657834;-85
2021/03/27 03:49:27;;;;;;;60.13;26.37;;;4.20;99.90;;;;;;4418171;28;657946;-87
2021/03/27 03:52:27;;;;;;;57.10;24.30;;;4.20;99.90;;;;;;4410409;28;657770;-86
2021/03/27 03:55:22;;;;;;;127.43;42.17;;;4.20;99.90;;;;;;4417251;28;657760;-87
2021/03/27 03:58:23;;;;;;;66.67;28.10;;;4.20;99.90;;;;;;4417188;28;658699;-87
2021/03/27 04:01:12;;;;;;;63.17;28.23;;;4.30;99.90;;;;;;4392274;28;658064;-86
2021/03/27 04:04:00;;;;;;;68.63;29.00;;;4.30;99.90;;;;;;4403475;28;658062;-87
2021/03/27 04:06:51;;;;;;;58.13;26.37;;;4.30;99.90;;;;;;4398863;28;657805;-85
2021/03/27 04:09:39;;;;;;;64.93;27.07;;;4.20;99.90;;;;;;4402143;28;657561;-87
2021/03/27 04:12:31;;;;;;;56.30;24.80;;;4.10;99.90;;;;;;4427796;28;657472;-86
2021/03/27 04:15:23;;;;;;;55.50;23.90;;;4.10;99.90;;;;;;4391303;28;658243;-86
2021/03/27 04:18:13;;;;;;;59.23;23.87;;;4.00;99.90;;;;;;4401578;28;658200;-87
2021/03/27 04:21:02;;;;;;;57.50;24.70;;;3.90;99.90;;;;;;4413382;28;657963;-86
2021/03/27 04:23:53;;;;;;;53.13;24.63;;;3.80;99.90;;;;;;4411930;28;657516;-86
2021/03/27 04:26:47;;;;;;;58.83;25.47;;;3.70;99.90;;;;;;4392189;28;658162;-86
2021/03/27 04:29:37;;;;;;;54.13;22.80;;;3.60;99.90;;;;;;4416949;28;657660;-87
2021/03/27 04:32:44;;;;;;;96.57;35.33;;;3.60;99.90;;;;;;4403765;28;657732;-86
2021/03/27 04:36:04;;;;;;;66.43;27.57;;;3.50;99.90;;;;;;4396130;28;657476;-86
2021/03/27 04:38:56;;;;;;;62.27;25.27;;;3.50;99.90;;;;;;4325233;28;657555;-86
2021/03/27 04:41:45;;;;;;;52.95;23.95;;;3.50;99.90;;;;;;4329574;28;657803;-86
2021/03/27 04:44:37;;;;;;;52.60;23.35;;;3.50;99.90;;;;;;4360048;28;658351;-85
2021/03/27 04:47:26;;;;;;;49.45;22.33;;;3.50;99.90;;;;;;4345819;28;657910;-87
2021/03/27 04:50:18;;;;;;;49.80;22.33;;;3.50;99.90;;;;;;4362013;28;657642;-86
2021/03/27 04:53:11;;;;;;;46.87;20.50;;;3.60;99.90;;;;;;4344970;28;658170;-86
2021/03/27 04:56:05;;;;;;;50.57;21.53;;;3.70;99.90;;;;;;4360614;28;657834;-85
2021/03/27 04:58:55;;;;;;;42.00;18.80;;;3.80;99.90;;;;;;4334618;28;657924;-85
2021/03/27 05:01:48;;;;;;;44.93;20.40;;;3.90;99.90;;;;;;4336269;28;658230;-85
2021/03/27 05:04:51;;;;;;;42.33;19.67;;;4.00;99.90;;;;;;4356263;28;658092;-87
2021/03/27 05:07:45;;;;;;;40.70;19.87;;;4.20;99.90;;;;;;4338355;28;657610;-86
2021/03/27 05:10:36;;;;;;;44.00;19.90;;;4.30;99.90;;;;;;4346422;28;657804;-86
2021/03/27 05:13:26;;;;;;;72.37;32.23;;;4.50;99.90;;;;;;4387929;28;658007;-85
2021/03/27 05:16:14;;;;;;;52.70;24.60;;;4.60;99.90;;;;;;4410463;28;657627;-85
2021/03/27 05:19:05;;;;;;;51.07;23.40;;;4.80;99.90;;;;;;4445856;28;658511;-86
2021/03/27 05:21:59;;;;;;;52.07;21.50;;;5.00;99.90;;;;;;4406260;28;657487;-85
2021/03/27 05:25:19;;;;;;;45.57;20.27;;;5.10;99.90;;;;;;4403473;28;657607;-86
2021/03/27 05:28:12;;;;;;;42.97;19.43;;;5.30;99.90;;;;;;4399254;28;657776;-87
2021/03/27 05:31:04;;;;;;;43.90;19.37;;;5.50;99.90;;;;;;4409885;28;657736;-87
2021/03/27 05:34:00;;;;;;;43.30;18.97;;;5.70;99.90;;;;;;4397372;28;658203;-87
2021/03/27 05:36:59;;;;;;;46.77;20.57;;;6.00;99.90;;;;;;4393516;28;657656;-85
2021/03/27 05:39:49;;;;;;;50.73;19.50;;;6.30;99.90;;;;;;4399533;28;657919;-87
2021/03/27 05:42:56;;;;;;;45.73;19.50;;;6.60;99.90;;;;;;4396236;28;657575;-87
2021/03/27 05:46:36;;;;;;;39.53;19.17;;;6.90;99.90;;;;;;4410114;28;657373;-86
2021/03/27 05:49:58;;;;;;;38.80;18.63;;;7.20;99.90;;;;;;4430430;28;657895;-86
2021/03/27 05:52:56;;;;;;;38.80;17.83;;;7.50;99.90;;;;;;4424454;28;658292;-87
2021/03/27 05:55:52;;;;;;;41.40;17.53;;;7.80;99.90;;;;;;4412713;28;658233;-86
2021/03/27 05:58:55;;;;;;;41.47;18.20;;;8.10;99.90;;;;;;4395900;28;657698;-86
2021/03/27 06:01:46;;;;;;;37.93;17.63;;;8.30;99.90;;;;;;4393590;28;658414;-86
2021/03/27 06:05:10;;;;;;;41.63;19.10;;;8.60;99.90;;;;;;4397526;28;657986;-86
2021/03/27 06:08:16;;;;;;;36.53;17.20;;;8.80;99.90;;;;;;4413308;28;657602;-86
2021/03/27 06:11:31;;;;;;;38.93;17.80;;;9.10;99.90;;;;;;4411673;28;657847;-87
2021/03/27 06:14:48;;;;;;;37.10;16.63;;;9.30;99.90;;;;;;4401868;28;658462;-87
2021/03/27 06:17:39;;;;;;;35.30;16.53;;;9.50;99.90;;;;;;4392198;28;657721;-87
2021/03/27 06:20:48;;;;;;;37.97;18.07;;;9.60;99.90;;;;;;4404437;28;657478;-87
2021/03/27 06:23:52;;;;;;;37.70;18.33;;;9.70;99.90;;;;;;4409283;28;657838;-87
2021/03/27 06:27:03;;;;;;;43.07;17.70;;;9.70;99.90;;;;;;4408691;28;658033;-87
2021/03/27 06:30:41;;;;;;;35.03;15.87;;;9.90;99.90;;;;;;4405635;28;658047;-88
2021/03/27 06:33:52;;;;;;;51.30;20.47;;;9.90;99.90;;;;;;4410767;28;657499;-85
2021/03/27 06:36:58;;;;;;;41.27;18.10;;;10.10;99.90;;;;;;4402135;28;657755;-86
2021/03/27 06:40:25;;;;;;;36.03;16.30;;;10.10;99.90;;;;;;4390894;28;658939;-87
2021/03/27 06:43:57;;;;;;;38.27;16.73;;;10.40;99.90;;;;;;4399967;28;659132;-85
2021/03/27 06:46:58;;;;;;;34.23;16.37;;;10.70;99.90;;;;;;4386935;28;658779;-87
2021/03/27 06:49:59;;;;;;;33.10;15.37;;;11.10;99.90;;;;;;4394060;28;659261;-86
2021/03/27 06:53:06;;;;;;;31.07;15.40;;;11.30;99.90;;;;;;4393485;28;659148;-87
2021/03/27 06:56:20;;;;;;;37.97;16.17;;;11.70;99.50;;;;;;4392962;28;658674;-85
2021/03/27 06:59:18;;;;;;;30.73;14.90;;;11.80;97.00;;;;;;4394158;28;658671;-86
2021/03/27 07:02:28;;;;;;;27.43;13.73;;;12.00;96.90;;;;;;4408104;28;658705;-85
2021/03/27 07:06:00;;;;;;;30.70;14.03;;;12.30;93.80;;;;;;4405018;28;658499;-85
2021/03/27 07:09:04;;;;;;;30.50;14.43;;;12.60;93.00;;;;;;4366117;28;658952;-85
2021/03/27 07:12:11;;;;;;;32.50;14.83;;;12.70;92.20;;;;;;4375513;28;658760;-86
2021/03/27 07:15:19;;;;;;;32.10;15.50;;;12.90;91.80;;;;;;4402839;28;659364;-86
2021/03/27 07:18:29;;;;;;;33.03;16.80;;;13.10;91.10;;;;;;4375064;28;658411;-86
2021/03/27 07:21:47;;;;;;;30.03;15.77;;;12.90;90.60;;;;;;4375457;28;658211;-86
2021/03/27 07:24:46;;;;;;;37.17;16.50;;;12.70;89.90;;;;;;4385455;28;658844;-85
2021/03/27 07:27:52;;;;;;;32.17;15.43;;;12.70;89.50;;;;;;4391189;28;659154;-85
2021/03/27 07:30:56;;;;;;;35.40;16.37;;;12.80;91.00;;;;;;4382626;28;658782;-85
2021/03/27 07:34:00;;;;;;;44.10;17.03;;;12.80;90.00;;;;;;4391846;28;658955;-86
2021/03/27 07:37:23;;;;;;;35.50;17.37;;;13.00;88.40;;;;;;4381236;28;658723;-85
2021/03/27 07:40:37;;;;;;;36.30;16.52;;;13.30;89.50;;;;;;4391128;28;658636;-85
2021/03/27 07:43:59;;;;;;;42.90;18.00;;;13.40;85.80;;;;;;4388175;28;659299;-85
2021/03/27 07:47:38;;;;;;;37.83;17.53;;;13.50;85.80;;;;;;4394571;28;659170;-85
2021/03/27 07:50:40;;;;;;;39.43;18.83;;;13.50;86.10;;;;;;4394904;28;659246;-85
2021/03/27 07:53:47;;;;;;;33.47;17.95;;;13.70;86.20;;;;;;4370884;28;658887;-85
2021/03/27 07:56:41;;;;;;;40.03;19.97;;;13.70;84.50;;;;;;4375131;28;659152;-85
2021/03/27 08:00:01;;;;;;;37.83;18.77;;;13.80;86.10;;;;;;4394964;28;658805;-85
2021/03/27 08:03:27;;;;;;;39.90;19.30;;;14.20;85.80;;;;;;4380565;28;658794;-85
2021/03/27 08:06:29;;;;;;;46.37;21.20;;;14.40;85.30;;;;;;4398236;28;658750;-85
2021/03/27 08:09:35;;;;;;;44.93;20.27;;;14.70;83.50;;;;;;4410630;28;658751;-85
2021/03/27 08:12:57;;;;;;;43.77;21.30;;;14.70;83.40;;;;;;4427040;28;658426;-85
2021/03/27 08:16:11;;;;;;;41.53;20.93;;;15.00;83.80;;;;;;4342558;28;658938;-85
2021/03/27 08:19:17;;;;;;;38.53;18.30;;;15.20;83.00;;;;;;4339603;28;658702;-85
2021/03/27 08:22:36;;;;;;;33.63;12.67;;;15.30;80.00;;;;;;4349408;28;659164;-85
2021/03/27 08:25:28;;;;;;;27.63;13.00;;;15.50;76.10;;;;;;4257688;29;658691;-86
2021/03/27 08:28:26;;;;;;;29.42;12.57;;;15.50;74.90;;;;;;4256869;29;659210;-84
2021/03/27 08:31:41;;;;;;;31.53;14.97;;;15.30;74.60;;;;;;4243881;29;658863;-85
2021/03/27 08:35:06;;;;;;;35.30;15.33;;;15.40;74.40;;;;;;4255793;29;658985;-85
2021/03/27 08:38:23;;;;;;;28.50;12.17;;;15.50;75.40;;;;;;4260713;29;659219;-86
2021/03/27 08:41:34;;;;;;;35.10;14.80;;;16.00;72.60;;;;;;4251530;29;658750;-85
2021/03/27 08:45:00;;;;;;;24.47;9.93;;;16.20;69.50;;;;;;4251308;29;658329;-86
2021/03/27 08:47:52;;;;;;;28.20;13.13;;;16.30;68.70;;;;;;4273542;29;657628;-85
2021/03/27 08:51:12;;;;;;;31.03;13.87;;;16.10;68.30;;;;;;4261608;29;659738;-85
2021/03/27 08:54:49;;;;;;;30.80;11.97;;;16.00;67.40;;;;;;4291672;28;658768;-86
2021/03/27 08:57:56;;;;;;;27.40;13.17;;;16.40;67.60;;;;;;4327043;28;658362;-87
2021/03/27 09:01:21;;;;;;;33.10;13.70;;;16.70;69.20;;;;;;4312442;28;659037;-86
2021/03/27 09:04:39;;;;;;;24.53;11.37;;;17.00;67.70;;;;;;4374445;28;658721;-85
2021/03/27 09:07:42;;;;;;;22.57;9.63;;;17.30;65.30;;;;;;4352490;28;658740;-86
2021/03/27 09:11:00;;;;;;;24.60;12.03;;;17.10;62.70;;;;;;4340054;28;657751;-85
2021/03/27 09:14:01;;;;;;;28.27;13.73;;;17.30;62.20;;;;;;4350807;28;658542;-86
2021/03/27 09:17:15;;;;;;;29.53;13.63;;;16.80;63.00;;;;;;4343242;28;659148;-85
2021/03/27 09:20:25;;;;;;;29.53;13.40;;;17.10;65.40;;;;;;4320525;28;658736;-85
2021/03/27 09:23:33;;;;;;;32.37;11.80;;;17.50;63.10;;;;;;4350678;28;658492;-86
2021/03/27 09:26:46;;;;;;;30.63;13.70;;;17.60;60.00;;;;;;4340820;28;659461;-85
2021/03/27 09:29:57;;;;;;;27.30;13.43;;;17.70;61.50;;;;;;4287592;29;658558;-86
2021/03/27 09:32:53;;;;;;;26.87;12.43;;;17.50;59.90;;;;;;4268239;29;659111;-87
2021/03/27 09:35:53;;;;;;;28.97;12.37;;;17.30;61.10;;;;;;4278813;29;658934;-85
2021/03/27 09:38:47;;;;;;;29.33;12.73;;;17.20;62.00;;;;;;4278584;29;658605;-85
2021/03/27 09:41:54;;;;;;;32.67;12.90;;;17.50;62.80;;;;;;4287026;29;658788;-85
2021/03/27 09:44:53;;;;;;;21.23;8.37;;;18.10;62.00;;;;;;4282371;29;658348;-85
2021/03/27 09:48:21;;;;;;;18.33;8.63;;;18.50;58.60;;;;;;4352934;28;657623;-85
2021/03/27 09:51:15;;;;;;;16.07;6.63;;;18.40;56.90;;;;;;4356725;28;657666;-85
2021/03/27 09:54:04;;;;;;;16.87;8.80;;;17.90;57.80;;;;;;4342887;28;658156;-85
2021/03/27 09:56:54;;;;;;;20.57;8.17;;;17.90;58.70;;;;;;4371095;28;657805;-85
2021/03/27 09:59:44;;;;;;;21.20;9.50;;;18.10;58.00;;;;;;4377313;28;657991;-85
2021/03/27 10:02:36;;;;;;;23.17;10.50;;;18.10;57.10;;;;;;4367298;28;657920;-85
2021/03/27 10:05:31;;;;;;;20.00;9.70;;;18.70;57.20;;;;;;4375847;28;658868;-85
2021/03/27 10:08:20;;;;;;;20.57;10.00;;;19.20;55.50;;;;;;4377007;28;658026;-85
2021/03/27 10:11:08;;;;;;;21.23;10.33;;;19.10;56.00;;;;;;4426948;28;658234;-85
2021/03/27 10:13:59;;;;;;;14.43;5.57;;;18.60;55.80;;;;;;4432325;28;658616;-85
2021/03/27 10:16:47;;;;;;;20.00;8.13;;;18.60;56.00;;;;;;4400567;28;658664;-85
2021/03/27 10:19:35;;;;;;;17.67;8.33;;;18.30;55.40;;;;;;4414398;28;657630;-85
2021/03/27 10:22:35;;;;;;;17.23;8.13;;;18.40;55.40;;;;;;4437307;28;657458;-85
2021/03/27 10:25:26;;;;;;;16.70;9.00;;;18.40;53.60;;;;;;4387827;28;657990;-85
2021/03/27 10:28:17;;;;;;;15.57;7.23;;;19.00;55.60;;;;;;4396135;28;658307;-86
2021/03/27 10:31:06;;;;;;;15.67;7.30;;;19.40;52.70;;;;;;4402149;28;658569;-85
2021/03/27 10:34:01;;;;;;;13.43;6.57;;;19.30;53.10;;;;;;4414762;28;658033;-85
2021/03/27 10:36:53;;;;;;;14.47;6.33;;;18.40;51.90;;;;;;4405871;28;657609;-85
2021/03/27 10:39:56;;;;;;;10.13;5.10;;;18.10;51.10;;;;;;4410503;28;658536;-85
2021/03/27 10:42:48;;;;;;;12.68;5.97;;;17.70;51.60;;;;;;4413558;28;658188;-85
2021/03/27 10:45:51;;;;;;;17.07;7.50;;;17.80;51.80;;;;;;4427303;28;657947;-85
2021/03/27 10:49:02;;;;;;;11.00;4.15;;;17.70;52.80;;;;;;4400398;28;657404;-84
2021/03/27 10:52:10;;;;;;;11.60;5.77;;;17.50;50.90;;;;;;4407548;28;657360;-84
2021/03/27 10:55:20;;;;;;;14.27;5.93;;;17.40;51.10;;;;;;4382449;28;657981;-85
2021/03/27 10:58:49;;;;;;;15.10;6.77;;;17.40;51.50;;;;;;4387170;28;658441;-84
2021/03/27 11:02:03;;;;;;;19.33;7.40;;;17.50;52.30;;;;;;4391837;28;657635;-85
2021/03/27 11:05:28;;;;;;;12.93;5.77;;;17.50;52.20;;;;;;4394950;28;657962;-85
2021/03/27 11:09:00;;;;;;;15.47;7.23;;;17.60;52.20;;;;;;4408287;28;657848;-85
2021/03/27 11:12:16;;;;;;;16.87;6.83;;;17.60;51.70;;;;;;4420557;28;657771;-84
2021/03/27 11:15:30;;;;;;;13.93;5.90;;;18.00;51.40;;;;;;4411212;28;657444;-84
2021/03/27 11:19:00;;;;;;;13.00;6.90;;;18.10;51.30;;;;;;4374782;28;658076;-85
2021/03/27 11:22:14;;;;;;;16.47;7.47;;;18.10;51.30;;;;;;4408786;28;657399;-85
2021/03/27 11:25:34;;;;;;;9.20;4.07;;;18.50;50.60;;;;;;4398751;28;657592;-85
2021/03/27 11:28:22;;;;;;;15.43;7.27;;;18.50;50.20;;;;;;4396277;28;656545;-85
2021/03/27 11:31:19;;;;;;;14.18;6.70;;;18.60;49.90;;;;;;4400802;28;657909;-86
2021/03/27 11:34:11;;;;;;;20.07;7.30;;;18.50;49.50;;;;;;4390389;28;657729;-85
2021/03/27 11:37:04;;;;;;;11.33;5.40;;;18.60;50.60;;;;;;4394501;28;657383;-85
2021/03/27 11:39:54;;;;;;;18.60;7.60;;;18.50;48.70;;;;;;4394600;28;657520;-85
2021/03/27 11:42:42;;;;;;;16.47;6.50;;;18.00;49.70;;;;;;4394928;28;657574;-85
2021/03/27 11:45:33;;;;;;;18.43;6.60;;;17.80;49.30;;;;;;4399804;28;657334;-84
2021/03/27 11:48:21;;;;;;;18.80;7.93;;;17.80;50.30;;;;;;4391370;28;657738;-86
2021/03/27 11:51:13;;;;;;;16.63;7.70;;;18.00;50.00;;;;;;4399763;28;657605;-85
2021/03/27 11:54:07;;;;;;;16.77;7.40;;;18.10;50.10;;;;;;4401001;28;658530;-85
2021/03/27 11:57:16;;;;;;;12.70;5.97;;;18.30;49.90;;;;;;4376848;28;658399;-85
2021/03/27 12:03:49;;;;;;;19.40;8.33;;;18.50;49.10;;;;;;4388764;28;657603;-85
2021/03/27 12:06:39;;;;;;;16.33;8.27;;;18.50;49.10;;;;;;4398199;28;657388;-86
2021/03/27 12:09:34;;;;;;;17.90;8.17;;;18.50;50.50;;;;;;4400718;28;658059;-85
2021/03/27 12:12:31;;;;;;;13.50;4.73;;;18.70;50.30;;;;;;4389404;28;657843;-85
2021/03/27 12:15:26;;;;;;;11.90;6.03;;;19.10;50.20;;;;;;4400403;28;657742;-86
2021/03/27 12:18:17;;;;;;;16.60;8.20;;;19.40;49.70;;;;;;4400301;28;657789;-85
2021/03/27 12:21:05;;;;;;;16.83;8.10;;;19.00;48.70;;;;;;4401228;28;657486;-85
2021/03/27 12:23:54;;;;;;;19.03;7.57;;;18.40;50.20;;;;;;4404085;28;657778;-85
2021/03/27 12:26:45;;;;;;;20.80;6.90;;;18.20;50.70;;;;;;4423271;28;657430;-85
2021/03/27 12:29:45;;;;;;;17.30;7.60;;;17.80;51.60;;;;;;4413560;28;657403;-85
2021/03/27 12:32:41;;;;;;;16.87;8.10;;;17.60;50.40;;;;;;4367441;28;657492;-85
2021/03/27 12:35:31;;;;;;;16.97;8.60;;;17.70;50.90;;;;;;4399964;28;657634;-86
2021/03/27 12:38:47;;;;;;;18.03;8.20;;;17.70;51.30;;;;;;4400671;28;657945;-86
2021/03/27 12:41:39;;;;;;;14.53;5.53;;;17.70;51.60;;;;;;4379485;28;658440;-86
2021/03/27 12:44:33;;;;;;;16.50;7.20;;;17.70;52.40;;;;;;4415871;28;657860;-86
2021/03/27 12:47:47;;;;;;;15.27;6.93;;;17.60;52.00;;;;;;4413059;28;657936;-85
2021/03/27 12:51:08;;;;;;;20.67;8.60;;;17.70;52.20;;;;;;4413328;28;657634;-86
2021/03/27 12:54:03;;;;;;;23.13;9.40;;;17.90;51.90;;;;;;4417497;28;657983;-86
2021/03/27 12:57:44;;;;;;;13.23;6.03;;;17.70;51.20;;;;;;4417384;28;657425;-87
2021/03/27 13:00:53;;;;;;;11.43;4.77;;;17.60;51.60;;;;;;4417243;28;657443;-86
2021/03/27 13:04:02;;;;;;;20.70;5.77;;;17.60;51.70;;;;;;4410487;28;657564;-87
2021/03/27 13:07:06;;;;;;;15.97;5.67;;;17.80;51.60;;;;;;4410776;28;658057;-86
2021/03/27 13:10:16;;;;;;;11.80;6.73;;;17.80;50.40;;;;;;4411802;28;657791;-87
2021/03/27 13:13:46;;;;;;;19.17;7.63;;;18.00;50.10;;;;;;4410845;28;658115;-87
2021/03/27 13:16:39;;;;;;;17.03;8.03;;;17.90;51.10;;;;;;4390564;28;658002;-87
2021/03/27 13:19:30;;;;;;;25.67;7.50;;;17.80;52.00;;;;;;4414343;28;657452;-87
2021/03/27 13:22:18;;;;;;;19.23;7.97;;;17.80;52.00;;;;;;4414440;28;657737;-87
2021/03/27 13:25:14;;;;;;;20.20;8.67;;;17.50;52.60;;;;;;4436894;28;658448;-88
2021/03/27 13:28:03;;;;;;;19.63;10.03;;;17.30;53.30;;;;;;4410644;28;657844;-89
2021/03/27 13:30:53;;;;;;;18.50;8.40;;;17.10;53.10;;;;;;4412492;28;658645;-87
2021/03/27 13:33:45;;;;;;;18.87;8.80;;;17.40;53.70;;;;;;4412911;28;657985;-89
2021/03/27 13:36:33;;;;;;;18.10;8.27;;;17.60;53.90;;;;;;4402898;28;657389;-86
2021/03/27 13:39:28;;;;;;;22.73;8.47;;;17.30;53.30;;;;;;4396584;28;657872;-85
2021/03/27 13:42:47;;;;;;;21.95;9.77;;;17.30;53.90;;;;;;4407858;28;657857;-86
2021/03/27 13:45:37;;;;;;;19.37;9.70;;;17.10;54.40;;;;;;4400612;28;657677;-86
2021/03/27 13:48:35;;;;;;;15.50;7.70;;;16.90;55.70;;;;;;4412256;28;659797;-85
2021/03/27 13:51:24;;;;;;;25.63;8.80;;;16.80;56.90;;;;;;4384487;28;657825;-85
2021/03/27 13:54:24;;;;;;;12.90;6.50;;;16.70;57.00;;;;;;4425711;28;657641;-85
2021/03/27 13:57:17;;;;;;;9.77;5.03;;;16.40;59.10;;;;;;4397490;28;657429;-85
2021/03/27 14:00:13;;;;;;;17.00;8.20;;;16.00;61.00;;;;;;4392845;28;656430;-86
2021/03/27 14:03:04;;;;;;;14.27;7.60;;;16.10;61.10;;;;;;4394600;28;657641;-86
2021/03/27 14:06:01;;;;;;;16.80;8.00;;;16.20;62.20;;;;;;4407639;28;658077;-86
2021/03/27 14:09:26;;;;;;;18.87;9.27;;;16.00;63.30;;;;;;4401571;28;657993;-87
2021/03/27 14:12:17;;;;;;;15.80;8.57;;;16.00;62.80;;;;;;4374716;28;657500;-86
2021/03/27 14:15:17;;;;;;;18.77;7.47;;;15.50;64.10;;;;;;4373744;28;658203;-86
2021/03/27 14:18:22;;;;;;;17.87;8.43;;;15.30;65.00;;;;;;4366218;28;657768;-87
2021/03/27 14:21:18;;;;;;;18.07;8.77;;;15.10;65.80;;;;;;4334800;28;657740;-87
2021/03/27 14:24:38;;;;;;;19.80;9.50;;;15.00;66.30;;;;;;4372912;28;657435;-87
2021/03/27 14:27:38;;;;;;;24.43;10.20;;;15.20;67.50;;;;;;4296257;28;657453;-87
2021/03/27 14:30:49;;;;;;;16.17;8.60;;;15.30;68.00;;;;;;4292116;28;658772;-86
2021/03/27 14:33:56;;;;;;;23.47;11.27;;;15.00;69.20;;;;;;4317217;28;658322;-87
2021/03/27 14:36:51;;;;;;;20.97;11.00;;;15.00;70.40;;;;;;4313508;28;658379;-87
2021/03/27 14:39:51;;;;;;;16.90;9.13;;;15.20;70.10;;;;;;4297320;28;658400;-87
2021/03/27 14:42:46;;;;;;;20.40;10.30;;;15.10;69.40;;;;;;4300426;28;657723;-86
2021/03/27 14:45:38;;;;;;;17.53;8.33;;;15.40;69.20;;;;;;4292671;29;658486;-86
2021/03/27 14:48:26;;;;;;;18.70;9.27;;;15.00;69.80;;;;;;4306463;28;657919;-87
2021/03/27 14:51:17;;;;;;;18.07;10.57;;;14.90;70.90;;;;;;4311774;28;657735;-87
2021/03/27 14:54:34;;;;;;;20.27;11.15;;;14.90;71.60;;;;;;4331724;28;659534;-87
2021/03/27 14:57:24;;;;;;;22.67;11.57;;;15.20;71.30;;;;;;4307510;28;658401;-88
2021/03/27 15:00:38;;;;;;;20.57;11.00;;;15.00;71.70;;;;;;4304694;28;658620;-86
2021/03/27 15:03:46;;;;;;;25.00;12.63;;;14.70;73.40;;;;;;4311917;28;659031;-86
2021/03/27 15:06:46;;;;;;;27.23;13.70;;;14.20;75.40;;;;;;4343499;28;659122;-86
2021/03/27 15:10:08;;;;;;;25.75;13.13;;;13.90;78.20;;;;;;4418849;28;658326;-87
2021/03/27 15:12:58;;;;;;;39.80;13.83;;;13.50;80.70;;;;;;4395729;28;658894;-84